Time;durP1;ratioP1;P1;durP2;ratioP2;P2;SDS_P1;SDS_P2;PMS_P1;PMS_P2;Temp;Humidity;BMP_temperature;BMP_pressure;BME280_temperature;BME280_humidity;BME280_pressure;Samples;Min_cycle;Max_cycle;Signal;HPM_P1;HPM_P2
2024/01/06 00:04:26;;;;;;;7.93;2.65;;;;;;;15.59;100.00;101560.38;10606800;27;20499;-87
2024/01/06 00:09:49;;;;;;;8.40;2.42;;;;;;;15.53;100.00;101547.91;10609180;28;20047;-85
2024/01/06 00:15:11;;;;;;;8.13;2.60;;;;;;;15.68;100.00;101555.13;10606538;28;20144;-86
2024/01/06 00:20:35;;;;;;;8.68;2.88;;;;;;;15.64;100.00;101560.41;10602403;28;20043;-86
2024/01/06 00:25:58;;;;;;;8.88;2.72;;;;;;;15.56;100.00;101563.00;10604182;27;20043;-84
2024/01/06 00:31:20;;;;;;;6.53;2.53;;;;;;;15.61;100.00;101555.97;10604306;27;20050;-84
2024/01/06 00:36:44;;;;;;;10.85;3.67;;;;;;;15.76;100.00;101542.75;10625079;27;20749;-84
2024/01/06 00:42:06;;;;;;;7.28;3.33;;;;;;;15.80;100.00;101536.59;10624113;27;20047;-84
2024/01/06 00:47:29;;;;;;;7.85;3.33;;;;;;;15.87;100.00;101543.72;10600126;27;20047;-84
2024/01/06 00:52:53;;;;;;;9.50;3.10;;;;;;;15.98;100.00;101541.13;10623439;27;20046;-85
2024/01/06 00:58:15;;;;;;;5.20;2.38;;;;;;;16.12;100.00;101522.56;10609817;27;20079;-86
2024/01/06 01:03:37;;;;;;;11.40;2.90;;;;;;;16.04;100.00;101525.19;10609576;27;20130;-86
2024/01/06 01:09:01;;;;;;;8.88;2.75;;;;;;;15.90;100.00;101517.09;10601376;27;20666;-85
2024/01/06 01:14:24;;;;;;;9.73;3.67;;;;;;;15.92;100.00;101517.13;10623567;27;20083;-83
2024/01/06 01:19:47;;;;;;;11.18;3.15;;;;;;;16.00;100.00;101511.84;10623000;27;20364;-83
2024/01/06 01:25:12;;;;;;;11.38;4.28;;;;;;;16.02;100.00;101500.28;10607201;27;20606;-83
2024/01/06 01:30:35;;;;;;;5.20;2.92;;;;;;;16.08;100.00;101510.13;10608269;27;20108;-83
2024/01/06 01:35:57;;;;;;;8.32;2.95;;;;;;;16.00;100.00;101502.09;10609059;27;20055;-83
2024/01/06 01:41:21;;;;;;;9.68;2.70;;;;;;;16.03;100.00;101511.84;10606535;27;20043;-86
2024/01/06 01:46:44;;;;;;;8.80;3.00;;;;;;;16.02;100.00;101499.41;10622245;27;20069;-85
2024/01/06 01:52:06;;;;;;;9.52;2.95;;;;;;;15.98;100.00;101498.50;10626751;27;20050;-84
2024/01/06 01:57:30;;;;;;;12.52;3.20;;;;;;;15.93;100.00;101494.94;10652120;27;20050;-84
2024/01/06 02:02:53;;;;;;;6.78;2.75;;;;;;;15.91;100.00;101480.72;10646131;27;20053;-83
2024/01/06 02:08:15;;;;;;;10.27;3.03;;;;;;;15.97;100.00;101483.41;10612617;27;20051;-85
2024/01/06 02:13:39;;;;;;;10.70;3.67;;;;;;;15.86;100.00;101472.72;10625831;27;20054;-82
2024/01/06 02:19:01;;;;;;;7.50;2.90;;;;;;;15.85;100.00;101475.38;10624971;27;20047;-85
2024/01/06 02:24:25;;;;;;;8.88;2.47;;;;;;;15.86;100.00;101475.38;10601023;27;20035;-85
2024/01/06 02:29:48;;;;;;;8.93;2.58;;;;;;;15.93;100.00;101482.53;10615205;27;20104;-85
2024/01/06 02:35:10;;;;;;;7.60;3.10;;;;;;;15.99;100.00;101467.44;10616200;27;20042;-86
2024/01/06 02:40:34;;;;;;;9.13;2.60;;;;;;;16.14;100.00;101471.09;10597771;27;20126;-87
2024/01/06 02:45:56;;;;;;;9.88;2.90;;;;;;;16.11;100.00;101473.72;10619503;27;20047;-85
2024/01/06 02:51:19;;;;;;;9.85;2.80;;;;;;;16.09;100.00;101467.47;10610642;27;20050;-87
2024/01/06 02:56:43;;;;;;;7.80;2.85;;;;;;;16.14;100.00;101457.75;10618186;27;20047;-87
2024/01/06 03:02:05;;;;;;;10.10;2.65;;;;;;;16.24;100.00;101450.69;10615660;27;20043;-84
2024/01/06 03:07:28;;;;;;;4.53;2.15;;;;;;;16.28;100.00;101461.34;10614799;27;20039;-85
2024/01/06 03:12:51;;;;;;;9.95;2.80;;;;;;;16.39;100.00;101450.75;10602308;27;20138;-85
2024/01/06 03:18:14;;;;;;;5.43;2.30;;;;;;;16.28;100.00;101458.69;10593973;27;20062;-84
2024/01/06 03:23:36;;;;;;;10.95;2.60;;;;;;;16.35;100.00;101452.47;10605248;27;20130;-84
2024/01/06 03:29:02;;;;;;;7.63;3.08;;;;;;;16.28;100.00;101460.44;10608935;27;20047;-88
2024/01/06 03:34:24;;;;;;;9.35;3.00;;;;;;;16.30;100.00;101469.34;10601717;27;20066;-88
2024/01/06 03:39:47;;;;;;;5.72;2.33;;;;;;;16.40;100.00;101480.94;10618844;27;20055;-88
2024/01/06 03:45:11;;;;;;;9.30;2.85;;;;;;;16.50;100.00;101483.63;10603399;27;20046;-89
2024/01/06 03:50:33;;;;;;;8.82;2.83;;;;;;;16.64;100.00;101481.03;10605354;27;20047;-90
2024/01/06 03:55:56;;;;;;;11.50;2.90;;;;;;;16.73;100.00;101481.97;10605381;27;20198;-87
2024/01/06 04:01:21;;;;;;;11.35;3.28;;;;;;;16.78;100.00;101483.72;10603548;27;20043;-85
2024/01/06 04:06:43;;;;;;;9.50;2.78;;;;;;;16.88;100.00;101482.84;10616980;27;20053;-85
2024/01/06 04:12:07;;;;;;;7.05;3.60;;;;;;;16.92;100.00;101487.31;10617211;28;20047;-87
2024/01/06 04:17:31;;;;;;;10.30;2.60;;;;;;;16.89;100.00;101496.19;10591738;28;20442;-89
2024/01/06 04:22:53;;;;;;;6.07;2.55;;;;;;;16.87;100.00;101494.44;10610346;28;20485;-89
2024/01/06 04:28:15;;;;;;;9.85;2.50;;;;;;;16.94;100.00;101506.84;10598732;28;20042;-88
2024/01/06 04:33:40;;;;;;;14.07;2.95;;;;;;;16.90;100.00;101513.09;10600098;28;20055;-89
2024/01/06 04:39:02;;;;;;;13.48;2.85;;;;;;;16.77;100.00;101511.28;10591351;28;20047;-87
2024/01/06 04:44:25;;;;;;;11.50;3.35;;;;;;;16.65;100.00;101510.38;10616769;28;20035;-88
2024/01/06 04:49:49;;;;;;;8.38;3.00;;;;;;;16.59;100.00;101514.75;10601771;28;20047;-89
2024/01/06 04:55:11;;;;;;;10.27;3.00;;;;;;;16.63;100.00;101512.13;10604453;28;20051;-89
2024/01/06 05:00:35;;;;;;;8.70;3.40;;;;;;;16.66;100.00;101528.16;10605872;28;20072;-89
2024/01/06 05:05:59;;;;;;;11.80;3.00;;;;;;;16.66;100.00;101520.16;10610381;28;20051;-88
2024/01/06 05:11:22;;;;;;;10.35;2.80;;;;;;;16.66;100.00;101524.59;10601305;27;20052;-88
2024/01/06 05:16:44;;;;;;;7.55;2.85;;;;;;;16.69;100.00;101537.91;10608986;27;20043;-87
2024/01/06 05:22:08;;;;;;;9.18;3.28;;;;;;;16.73;100.00;101529.97;10605459;27;20058;-87
2024/01/06 05:27:31;;;;;;;12.48;2.90;;;;;;;16.86;100.00;101540.66;10594547;27;20055;-88
2024/01/06 05:32:54;;;;;;;10.15;2.97;;;;;;;16.99;100.00;101542.47;10609280;27;20108;-88
2024/01/06 05:38:18;;;;;;;11.90;2.97;;;;;;;17.04;100.00;101533.56;10596838;27;20050;-88
2024/01/06 05:43:40;;;;;;;11.05;3.00;;;;;;;17.07;100.00;101538.00;10623420;27;20044;-89
2024/01/06 05:49:02;;;;;;;10.43;2.75;;;;;;;17.04;100.00;101532.69;10612825;27;20050;-88
2024/01/06 05:54:26;;;;;;;10.98;3.13;;;;;;;17.09;100.00;101538.91;10621944;27;20447;-88
2024/01/06 05:59:49;;;;;;;7.38;3.10;;;;;;;17.18;100.00;101527.34;10607901;27;20138;-89
2024/01/06 06:05:13;;;;;;;6.80;2.80;;;;;;;17.23;100.00;101528.25;10617694;27;20085;-88
2024/01/06 06:10:51;;;;;;;12.70;4.13;;;;;;;17.30;100.00;101520.25;10619878;27;20054;-88
2024/01/06 06:16:14;;;;;;;10.80;3.88;;;;;;;17.46;100.00;101521.13;10618713;27;20517;-87
2024/01/06 06:21:36;;;;;;;9.07;3.45;;;;;;;17.58;100.00;101523.81;10619153;27;20058;-89
2024/01/06 06:27:00;;;;;;;11.68;3.50;;;;;;;17.92;100.00;101517.53;10605678;27;20423;-88
2024/01/06 06:32:22;;;;;;;11.15;5.50;;;;;;;18.12;100.00;101529.94;10589739;27;20088;-88
2024/01/06 06:37:45;;;;;;;10.27;4.40;;;;;;;18.62;100.00;101541.38;10606154;27;20051;-90
2024/01/06 06:43:09;;;;;;;12.07;3.58;;;;;;;20.46;100.00;101523.72;10590578;27;20552;-88
2024/01/06 06:48:31;;;;;;;13.30;4.05;;;;;;;22.77;100.00;101516.16;10600750;27;20146;-89
2024/01/06 06:53:54;;;;;;;9.75;3.03;;;;;;;22.22;100.00;101518.16;10575894;28;20199;-90
2024/01/06 06:59:17;;;;;;;9.30;3.22;;;;;;;22.80;100.00;101514.25;10576758;28;20101;-89
2024/01/06 07:04:40;;;;;;;8.95;3.45;;;;;;;21.60;100.00;101513.94;10559516;28;20071;-90
2024/01/06 07:10:03;;;;;;;11.75;5.85;;;;;;;22.80;100.00;101495.41;10576310;28;20043;-89
2024/01/06 07:15:27;;;;;;;7.13;4.25;;;;;;;24.36;100.00;101484.13;10562257;28;20043;-90
2024/01/06 07:20:49;;;;;;;8.80;4.38;;;;;;;23.90;100.00;101481.84;10547695;28;20050;-89
2024/01/06 07:26:11;;;;;;;9.40;2.80;;;;;;;24.40;100.00;101477.72;10573608;28;20038;-90
2024/01/06 07:31:36;;;;;;;10.88;2.67;;;;;;;25.08;90.05;101467.47;10571989;27;20043;-90
2024/01/06 07:36:58;;;;;;;8.25;2.40;;;;;;;24.32;88.18;101469.84;10552130;28;20048;-88
2024/01/06 07:42:21;;;;;;;9.80;5.00;;;;;;;21.77;100.00;101478.69;10561164;28;20135;-87
2024/01/06 07:47:45;;;;;;;13.23;6.10;;;;;;;21.50;100.00;101471.13;10567899;28;20056;-88
2024/01/06 07:53:08;;;;;;;9.82;5.05;;;;;;;24.10;100.00;101453.38;10572580;28;20063;-88
2024/01/06 07:58:30;;;;;;;10.18;6.40;;;;;;;25.21;90.06;101463.41;10575004;28;20043;-89
2024/01/06 08:03:54;;;;;;;8.00;3.08;;;;;;;25.79;84.18;101466.84;10574553;28;20050;-90
2024/01/06 08:09:16;;;;;;;8.07;3.85;;;;;;;26.68;72.04;101472.50;10602257;27;20467;-90
2024/01/06 08:14:39;;;;;;;9.82;2.85;;;;;;;26.03;73.10;101467.75;10564298;28;20138;-89
2024/01/06 08:20:03;;;;;;;4.72;2.75;;;;;;;26.19;70.05;101464.41;10560242;28;20134;-88
2024/01/06 08:25:26;;;;;;;5.43;2.13;;;;;;;26.61;62.60;101461.03;10574837;28;20651;-89
2024/01/06 08:30:48;;;;;;;6.35;2.45;;;;;;;26.51;62.25;101446.09;10574279;28;20044;-90
2024/01/06 08:36:12;;;;;;;3.88;2.30;;;;;;;27.20;60.15;101466.75;10574343;28;20108;-90
2024/01/06 08:41:37;;;;;;;14.13;6.18;;;;;;;27.41;57.87;101461.34;10574198;28;20055;-88
2024/01/06 08:46:59;;;;;;;8.05;3.42;;;;;;;27.26;58.05;101449.31;10550982;28;20043;-88
2024/01/06 08:52:23;;;;;;;10.73;5.32;;;;;;;25.96;70.51;101441.84;10608074;27;20051;-87
2024/01/06 08:57:46;;;;;;;5.53;2.03;;;;;;;24.72;84.17;101425.41;10615572;27;20047;-88
2024/01/06 09:03:09;;;;;;;6.47;3.22;;;;;;;23.21;100.00;101424.38;10611181;27;20046;-88
2024/01/06 09:08:33;;;;;;;6.03;2.60;;;;;;;23.80;98.62;101417.38;10612700;27;20126;-86
2024/01/06 09:13:55;;;;;;;8.55;5.30;;;;;;;24.74;93.88;101410.06;10609455;27;20076;-88
2024/01/06 09:19:18;;;;;;;13.73;4.70;;;;;;;24.00;94.99;101411.41;10616541;27;20518;-88
2024/01/06 09:24:42;;;;;;;15.10;8.90;;;;;;;22.68;100.00;101393.34;10621539;27;20162;-86
2024/01/06 09:30:05;;;;;;;6.35;3.58;;;;;;;22.10;100.00;101394.69;10610636;27;20051;-87
2024/01/06 09:35:28;;;;;;;12.23;4.93;;;;;;;21.80;100.00;101371.09;10607009;27;20729;-88
2024/01/06 09:40:54;;;;;;;10.32;5.55;;;;;;;21.60;100.00;101366.13;10593364;27;20035;-89
2024/01/06 09:46:24;;;;;;;5.63;2.95;;;;;;;21.64;100.00;101357.09;10599478;27;20562;-85
2024/01/06 09:51:51;;;;;;;7.30;3.67;;;;;;;21.70;100.00;101350.72;10593757;27;20055;-88
2024/01/06 09:57:15;;;;;;;5.32;2.90;;;;;;;22.75;100.00;101319.63;10606215;27;20052;-90
2024/01/06 10:02:38;;;;;;;8.38;2.75;;;;;;;22.98;100.00;101324.41;10592101;27;20073;-82
2024/01/06 10:08:00;;;;;;;8.60;2.38;;;;;;;23.45;100.00;101313.19;10608144;27;20050;-82
2024/01/06 10:13:25;;;;;;;8.50;2.10;;;;;;;22.65;100.00;101315.34;10606794;27;20579;-81
2024/01/06 10:18:47;;;;;;;7.28;2.50;;;;;;;22.56;100.00;101302.13;10606335;27;20055;-79
2024/01/06 10:24:10;;;;;;;4.40;2.30;;;;;;;22.29;100.00;101294.75;10593487;27;20079;-82
2024/01/06 10:29:34;;;;;;;4.43;2.15;;;;;;;22.08;100.00;101294.31;10607094;27;20047;-84
2024/01/06 10:34:57;;;;;;;7.28;3.20;;;;;;;22.22;100.00;101305.66;10575290;27;20043;-85
2024/01/06 10:40:20;;;;;;;6.32;2.63;;;;;;;22.49;100.00;101312.16;10604368;27;20469;-82
2024/01/06 10:45:44;;;;;;;3.78;1.98;;;;;;;23.40;100.00;101300.78;10606269;27;20078;-82
2024/01/06 10:51:07;;;;;;;5.32;2.03;;;;;;;24.38;100.00;101291.50;10588737;27;20047;-87
2024/01/06 10:56:30;;;;;;;7.28;1.90;;;;;;;25.24;87.69;101287.63;10604101;27;20574;-92
2024/01/06 11:01:55;;;;;;;3.78;1.85;;;;;;;24.35;95.92;101280.78;10590615;27;20065;-90
2024/01/06 11:07:20;;;;;;;5.00;2.17;;;;;;;25.00;89.59;101248.88;10610842;27;20039;-91
2024/01/06 11:12:43;;;;;;;8.95;2.70;;;;;;;25.39;86.72;101249.22;10604025;27;20047;-88
2024/01/06 11:18:07;;;;;;;3.45;1.80;;;;;;;25.77;80.74;101241.47;10606305;27;20055;-86
2024/01/06 11:23:29;;;;;;;4.97;1.70;;;;;;;24.50;92.37;101253.28;10592159;27;20154;-86
2024/01/06 11:28:53;;;;;;;4.53;1.83;;;;;;;24.15;100.00;101267.94;10586080;27;20036;-89
2024/01/06 11:34:18;;;;;;;5.47;2.13;;;;;;;25.31;92.98;101264.84;10565012;27;20050;-91
2024/01/06 11:39:42;;;;;;;5.95;1.90;;;;;;;25.33;84.54;101249.44;10589003;27;20043;-83
2024/01/06 11:45:06;;;;;;;6.78;1.80;;;;;;;24.53;91.58;101237.00;10588305;27;20043;-85
2024/01/06 11:50:32;;;;;;;4.82;1.67;;;;;;;24.35;96.10;101231.34;10588365;27;20059;-87
2024/01/06 11:55:55;;;;;;;3.63;1.80;;;;;;;24.48;97.23;101232.69;10602584;27;20456;-85
2024/01/06 12:01:18;;;;;;;4.20;2.13;;;;;;;24.13;96.63;101218.53;10600092;27;20050;-90
2024/01/06 12:06:44;;;;;;;5.25;1.65;;;;;;;23.57;100.00;101193.38;10607308;27;20047;-83
2024/01/06 12:12:09;;;;;;;3.83;2.03;;;;;;;23.17;100.00;101172.09;10589038;28;20054;-87
2024/01/06 12:17:32;;;;;;;4.57;2.03;;;;;;;22.58;100.00;101176.47;10560258;28;20048;-86
2024/01/06 12:22:56;;;;;;;9.73;2.60;;;;;;;22.66;100.00;101187.91;10600032;27;20047;-87
2024/01/06 12:28:19;;;;;;;6.95;2.75;;;;;;;22.19;100.00;101160.44;10597725;27;20043;-87
2024/01/06 12:33:42;;;;;;;6.13;2.80;;;;;;;21.86;100.00;101166.63;10593822;27;20070;-89
2024/01/06 12:39:09;;;;;;;6.95;3.05;;;;;;;21.58;100.00;101154.81;10595350;27;20055;-85
2024/01/06 12:44:36;;;;;;;6.87;2.40;;;;;;;21.52;100.00;101142.41;10588560;27;20057;-82
2024/01/06 12:49:59;;;;;;;9.05;3.42;;;;;;;21.66;100.00;101171.63;10607540;27;20055;-82
2024/01/06 13:01:03;;;;;;;2.88;2.08;;;;;;;21.46;100.00;101210.56;10608754;27;20045;-86
2024/01/06 13:06:26;;;;;;;6.25;2.28;;;;;;;21.45;100.00;101206.13;10623985;27;20051;-87
2024/01/06 13:11:51;;;;;;;5.75;2.22;;;;;;;21.08;100.00;101211.34;10620991;27;20059;-87
2024/01/06 13:17:14;;;;;;;5.25;2.83;;;;;;;20.85;100.00;101191.25;10609659;27;20142;-87
2024/01/06 13:22:37;;;;;;;5.43;2.83;;;;;;;20.54;100.00;101204.38;10623557;27;20125;-85
2024/01/06 13:28:01;;;;;;;3.75;3.05;;;;;;;20.38;100.00;101217.19;10621424;27;20071;-87
2024/01/06 13:33:23;;;;;;;8.35;3.22;;;;;;;20.37;100.00;101228.81;10592254;27;20046;-86
2024/01/06 13:38:46;;;;;;;4.68;2.50;;;;;;;20.42;100.00;101240.34;10594516;27;20142;-87
2024/01/06 13:44:10;;;;;;;4.35;2.70;;;;;;;20.41;100.00;101243.97;10607485;27;20120;-86
2024/01/06 13:49:32;;;;;;;5.43;2.50;;;;;;;20.48;100.00;101256.31;10617781;27;20043;-86
2024/01/06 13:54:55;;;;;;;7.45;2.30;;;;;;;20.39;100.00;101250.25;10596505;27;20047;-87
2024/01/06 14:00:20;;;;;;;7.88;3.38;;;;;;;20.44;100.00;101249.25;10607485;27;20532;-85
2024/01/06 14:05:43;;;;;;;9.15;2.75;;;;;;;20.65;100.00;101251.56;10593421;27;20070;-87
2024/01/06 14:11:06;;;;;;;5.22;2.15;;;;;;;20.67;100.00;101256.91;10607852;27;20047;-88
2024/01/06 14:16:30;;;;;;;7.60;2.75;;;;;;;20.82;100.00;101253.03;10581132;27;20080;-87
2024/01/06 14:21:52;;;;;;;4.30;2.00;;;;;;;20.68;100.00;101259.53;10595736;27;20049;-87
2024/01/06 14:27:15;;;;;;;6.57;2.20;;;;;;;20.65;100.00;101251.56;10606220;27;20073;-85
2024/01/06 14:32:39;;;;;;;7.82;2.10;;;;;;;20.66;100.00;101239.94;10600291;27;20083;-86
2024/01/06 14:38:01;;;;;;;6.57;2.13;;;;;;;20.42;100.00;101234.97;10600902;27;20421;-86
2024/01/06 14:43:23;;;;;;;8.43;2.78;;;;;;;20.35;100.00;101230.63;10589085;27;20092;-87
2024/01/06 14:48:47;;;;;;;3.58;1.65;;;;;;;20.12;100.00;101230.97;10603758;27;20562;-86
2024/01/06 14:54:09;;;;;;;4.47;2.33;;;;;;;20.14;100.00;101218.44;10600196;27;20050;-86
2024/01/06 14:59:32;;;;;;;11.50;2.60;;;;;;;19.96;100.00;101220.50;10603111;27;20113;-85
2024/01/06 15:04:57;;;;;;;5.63;2.97;;;;;;;19.80;100.00;101212.72;10590721;27;20047;-86
2024/01/06 15:10:20;;;;;;;10.50;2.53;;;;;;;19.38;100.00;101208.81;10591677;27;20051;-84
2024/01/06 15:15:42;;;;;;;3.22;2.00;;;;;;;19.09;100.00;101206.53;10604171;27;20064;-87
2024/01/06 15:21:06;;;;;;;6.63;2.42;;;;;;;19.23;100.00;101184.91;10562479;28;20433;-82
2024/01/06 15:26:29;;;;;;;5.93;2.28;;;;;;;19.34;100.00;101193.72;10576171;28;20047;-81
2024/01/06 15:31:56;;;;;;;3.85;2.10;;;;;;;19.45;100.00;101201.59;10564289;27;20073;-81
2024/01/06 15:37:20;;;;;;;6.50;1.92;;;;;;;19.40;100.00;101201.66;10612755;27;20043;-80
2024/01/06 15:42:43;;;;;;;6.18;1.85;;;;;;;19.53;100.00;101197.06;10597301;27;20070;-78
2024/01/06 15:48:06;;;;;;;7.72;2.03;;;;;;;19.61;100.00;101192.47;10616497;27;20059;-80
2024/01/06 15:53:30;;;;;;;4.18;2.55;;;;;;;19.59;100.00;101191.59;10571164;27;20048;-80
2024/01/06 15:58:54;;;;;;;4.85;1.90;;;;;;;19.69;100.00;101190.53;10545428;28;20101;-79
2024/01/06 16:04:16;;;;;;;6.00;2.30;;;;;;;19.67;100.00;101195.06;10559668;28;20084;-80
2024/01/06 16:09:40;;;;;;;4.72;2.55;;;;;;;19.88;100.00;101208.16;10558850;28;20104;-80
2024/01/06 16:15:02;;;;;;;4.22;1.95;;;;;;;19.83;100.00;101201.94;10575275;28;20050;-80
2024/01/06 16:20:25;;;;;;;3.30;1.95;;;;;;;19.83;100.00;101206.41;10544563;28;20051;-81
2024/01/06 16:25:49;;;;;;;4.78;1.65;;;;;;;19.89;100.00;101199.16;10526704;28;20076;-81
2024/01/06 16:31:12;;;;;;;6.10;2.10;;;;;;;19.78;100.00;101201.13;10543022;28;20035;-81
2024/01/06 16:36:34;;;;;;;3.17;2.00;;;;;;;19.82;100.00;101193.97;10548083;28;20066;-82
2024/01/06 16:41:58;;;;;;;4.57;2.10;;;;;;;19.83;100.00;101174.25;10540338;28;20377;-81
2024/01/06 16:47:20;;;;;;;4.75;2.17;;;;;;;19.72;100.00;101160.16;10527207;28;20096;-80
2024/01/06 16:52:43;;;;;;;3.92;2.10;;;;;;;19.77;100.00;101152.94;10537547;28;20058;-80
2024/01/06 16:58:07;;;;;;;6.97;2.75;;;;;;;19.62;100.00;101132.66;10602479;28;20099;-81
2024/01/06 17:03:29;;;;;;;3.35;1.65;;;;;;;19.55;100.00;101125.59;10563547;28;20039;-81
2024/01/06 17:08:52;;;;;;;5.80;2.08;;;;;;;19.02;100.00;101116.53;10556656;28;20059;-81
2024/01/06 17:14:16;;;;;;;5.90;2.80;;;;;;;18.89;100.00;101128.28;10562753;27;20108;-81
2024/01/06 17:19:39;;;;;;;6.50;2.28;;;;;;;18.78;100.00;101111.47;10558956;28;20491;-80
2024/01/06 17:25:01;;;;;;;5.38;2.22;;;;;;;18.76;100.00;101107.94;10570445;27;20096;-81
2024/01/06 17:30:25;;;;;;;3.22;2.00;;;;;;;18.75;100.00;101084.78;10547917;27;20262;-83
2024/01/06 17:35:48;;;;;;;7.10;2.10;;;;;;;18.78;100.00;101075.81;10577623;27;20039;-90
2024/01/06 17:41:10;;;;;;;5.15;2.00;;;;;;;18.81;100.00;101087.38;10572117;28;20495;-86
2024/01/06 17:46:34;;;;;;;6.88;2.55;;;;;;;18.78;100.00;101070.44;10577560;28;20104;-86
2024/01/06 17:51:57;;;;;;;2.30;1.88;;;;;;;18.68;100.00;101092.00;10584614;27;20407;-82
2024/01/06 17:57:19;;;;;;;5.72;2.30;;;;;;;18.67;100.00;101092.00;10603158;27;20046;-86
2024/01/06 18:02:46;;;;;;;4.78;1.90;;;;;;;18.58;100.00;101094.78;10608865;27;20058;-83
2024/01/06 18:08:09;;;;;;;3.03;1.60;;;;;;;18.61;100.00;101100.09;10611134;27;20035;-85
2024/01/06 18:13:32;;;;;;;6.28;2.30;;;;;;;18.67;100.00;101105.38;10622899;27;20079;-86
2024/01/06 18:18:56;;;;;;;4.90;2.58;;;;;;;18.53;100.00;101115.31;10581013;27;20080;-84
2024/01/06 18:24:18;;;;;;;7.03;3.55;;;;;;;18.43;100.00;101117.22;10609800;27;20043;-83
2024/01/06 18:29:41;;;;;;;6.70;3.22;;;;;;;18.43;100.00;101117.22;10608702;27;20432;-83
2024/01/06 18:35:06;;;;;;;6.13;2.60;;;;;;;18.49;100.00;101103.78;10608539;27;20096;-84
2024/01/06 18:40:28;;;;;;;7.25;2.95;;;;;;;18.46;100.00;101116.28;10588865;27;20047;-79
2024/01/06 18:45:51;;;;;;;6.78;3.05;;;;;;;18.46;100.00;101102.91;10613326;27;20051;-81
2024/01/06 18:51:15;;;;;;;7.35;3.10;;;;;;;18.47;100.00;101107.34;10639428;27;20050;-85
2024/01/06 18:56:37;;;;;;;4.72;2.15;;;;;;;18.39;100.00;101119.91;10612232;27;20092;-83
2024/01/06 19:02:00;;;;;;;7.68;2.33;;;;;;;18.42;100.00;101119.91;10584445;27;20100;-84
2024/01/06 19:07:24;;;;;;;8.85;3.15;;;;;;;18.37;100.00;101119.06;10605464;27;20051;-84
2024/01/06 19:12:50;;;;;;;8.82;3.20;;;;;;;18.30;100.00;101115.56;10607297;27;20059;-84
2024/01/06 19:18:14;;;;;;;5.47;3.00;;;;;;;18.28;100.00;101102.22;10620523;27;20059;-84
2024/01/06 19:23:40;;;;;;;6.15;2.10;;;;;;;18.31;100.00;101107.50;10600000;27;20506;-80
2024/01/06 19:29:02;;;;;;;7.82;2.53;;;;;;;18.36;100.00;101101.25;10603782;27;20510;-85
2024/01/06 19:34:25;;;;;;;8.93;3.08;;;;;;;18.37;100.00;101100.34;10597609;27;20524;-79
2024/01/06 19:39:50;;;;;;;9.50;2.45;;;;;;;18.28;100.00;101096.88;10592830;27;20088;-81
2024/01/06 19:45:13;;;;;;;17.10;8.75;;;;;;;18.28;100.00;101098.66;10610334;27;20051;-80
2024/01/06 19:50:36;;;;;;;4.65;2.20;;;;;;;18.28;100.00;101087.97;10603721;27;20047;-81
2024/01/06 19:56:03;;;;;;;4.40;2.50;;;;;;;18.26;100.00;101092.44;10603031;27;20056;-82
2024/01/06 20:01:25;;;;;;;7.10;2.55;;;;;;;18.20;100.00;101069.34;10597802;27;20055;-82
2024/01/06 20:06:47;;;;;;;4.47;2.60;;;;;;;18.50;100.00;101070.78;10628281;27;20046;-80
2024/01/06 20:12:11;;;;;;;5.47;2.42;;;;;;;18.45;100.00;101064.59;10631631;27;20048;-81
2024/01/06 20:17:34;;;;;;;3.55;2.25;;;;;;;18.37;100.00;101055.78;10601247;27;20050;-78
2024/01/06 20:22:56;;;;;;;8.60;3.55;;;;;;;18.38;100.00;101057.53;10609304;27;20035;-78
2024/01/06 20:28:21;;;;;;;6.43;1.90;;;;;;;18.35;100.00;101062.06;10600104;27;20049;-78
2024/01/06 20:33:44;;;;;;;9.30;2.63;;;;;;;18.41;100.00;101065.53;10603186;27;20487;-77
2024/01/06 20:39:07;;;;;;;12.20;2.85;;;;;;;18.36;100.00;101066.50;10599458;27;20039;-77
2024/01/06 20:44:30;;;;;;;5.40;2.40;;;;;;;18.37;100.00;101046.88;10615691;27;20046;-78
2024/01/06 20:49:53;;;;;;;10.63;4.57;;;;;;;18.38;100.00;101041.50;10621439;27;20043;-78
2024/01/06 20:55:16;;;;;;;6.88;2.60;;;;;;;18.65;100.00;101018.91;10623114;27;20047;-78
2024/01/06 21:00:40;;;;;;;7.45;2.47;;;;;;;18.80;100.00;101010.69;10612909;27;20104;-78
2024/01/06 21:06:03;;;;;;;7.72;2.72;;;;;;;18.74;100.00;101010.78;10604832;27;20502;-77
2024/01/06 21:11:25;;;;;;;6.68;2.88;;;;;;;18.90;100.00;100990.94;10570169;27;20047;-78
2024/01/06 21:16:50;;;;;;;9.02;2.20;;;;;;;19.00;100.00;100979.19;10608182;27;20047;-78
2024/01/06 21:22:13;;;;;;;7.63;2.60;;;;;;;18.90;100.00;100980.25;10593631;27;20059;-77
2024/01/06 21:27:35;;;;;;;6.78;2.10;;;;;;;19.01;100.00;100959.53;10606833;27;20031;-77
2024/01/06 21:33:01;;;;;;;7.97;2.75;;;;;;;19.01;100.00;100964.91;10604935;27;20447;-77
2024/01/06 21:38:26;;;;;;;11.20;3.65;;;;;;;19.03;100.00;100951.50;10593485;27;20134;-78
2024/01/06 21:43:48;;;;;;;6.53;2.55;;;;;;;19.11;100.00;100952.22;10593014;27;20150;-77
2024/01/06 21:49:12;;;;;;;8.20;2.92;;;;;;;19.07;100.00;100926.44;10556592;28;20398;-76
2024/01/06 21:54:35;;;;;;;7.35;2.67;;;;;;;19.15;100.00;100921.84;10547897;28;20058;-76
2024/01/06 21:59:58;;;;;;;4.88;2.65;;;;;;;19.26;100.00;100908.28;10604572;27;20145;-76
2024/01/06 22:05:23;;;;;;;6.03;2.22;;;;;;;19.43;100.00;100903.47;10601744;27;20043;-77
2024/01/06 22:10:46;;;;;;;10.15;2.83;;;;;;;19.52;100.00;100914.06;10595127;27;20059;-77
2024/01/06 22:16:08;;;;;;;6.88;2.17;;;;;;;19.50;100.00;100906.06;10609078;27;20055;-77
2024/01/06 22:21:32;;;;;;;7.15;2.30;;;;;;;19.33;100.00;100916.16;10619752;27;20130;-77
2024/01/06 22:26:55;;;;;;;8.25;2.80;;;;;;;19.22;100.00;100901.22;10603575;27;20043;-77
2024/01/06 22:32:17;;;;;;;8.32;1.98;;;;;;;19.36;100.00;100908.06;10601330;27;20047;-77
2024/01/06 22:37:41;;;;;;;7.53;2.50;;;;;;;19.52;100.00;100881.03;10604248;27;20040;-77
2024/01/06 22:43:04;;;;;;;8.68;2.58;;;;;;;19.62;100.00;100858.53;10603975;27;20047;-77
2024/01/06 22:48:26;;;;;;;5.50;2.40;;;;;;;19.76;100.00;100872.50;10590588;27;20081;-77
2024/01/06 22:53:50;;;;;;;5.22;2.10;;;;;;;19.88;100.00;100866.94;10603505;27;20058;-77
2024/01/06 22:59:13;;;;;;;8.40;2.38;;;;;;;19.77;100.00;100850.19;10617542;27;20046;-78
2024/01/06 23:04:35;;;;;;;6.63;2.67;;;;;;;19.62;100.00;100843.38;10583886;27;20054;-77
2024/01/06 23:09:59;;;;;;;7.57;2.30;;;;;;;19.64;100.00;100846.88;10601967;27;20047;-78
2024/01/06 23:15:21;;;;;;;7.43;2.55;;;;;;;19.75;100.00;100833.28;10607921;27;20047;-77
2024/01/06 23:20:44;;;;;;;6.70;2.47;;;;;;;19.80;100.00;100853.69;10602794;27;20055;-77
2024/01/06 23:26:08;;;;;;;6.57;2.17;;;;;;;19.97;100.00;100858.69;10579942;27;20051;-77
2024/01/06 23:31:30;;;;;;;6.10;2.13;;;;;;;19.92;100.00;100835.59;10592971;27;20047;-77
2024/01/06 23:36:52;;;;;;;6.95;3.13;;;;;;;19.90;100.00;100846.31;10619606;27;20054;-77
2024/01/06 23:42:16;;;;;;;7.75;2.35;;;;;;;20.03;100.00;100847.81;10598641;27;20035;-77
2024/01/06 23:47:39;;;;;;;9.90;2.85;;;;;;;20.03;100.00;100849.63;10610984;27;20499;-77
2024/01/06 23:53:01;;;;;;;8.95;2.80;;;;;;;20.20;100.00;100843.00;10600321;27;20043;-77
2024/01/06 23:58:25;;;;;;;7.75;2.83;;;;;;;20.30;100.00;100843.66;10595912;27;20055;-77
